ЗЦ Москва

ЗЦ Москва включает в себя собственно РПИ Москва, а также соседний РПИ Самара.

Лого ЗЦ Москва
Руководитель региона

Ivan Skatov

Контакты

Инструкторы региона
Alexander Petrenko * (Senior Student)
Alexey Dobronravov (Instructor)
Anton Myglan (Senior Instructor)
Artem Smorchkov * (Controller)
Dmitry Markus (Instructor)
Ilya Pyankov (Instructor)
Ivan Chokenyuk * (Controller)
Ivan Skatov (Instructor)
Matvey Safyannikov (Instructor)
Maxim Tsygankov (Instructor)
Sergei Stetsko * (Controller)
Yulia Goryacheva (Instructor)
Включает в себя

РПИ Москва
РПИ Самара

Диспетчеры региона

Диспетчер Рейтинг Допуски *
Alexander Petrenko Senior Student UUWV_CTR *, MSK_APP(UUEE+UUDD+UUWW)
Alexey Dobronravov Instructor UUWV_CTR, UWWW_CTR
Artem Smorchkov Controller UWWW_CTR, UUWW_TWR
Dmitry Markus Instructor UUWV_CTR, UWWW_CTR
George Kalandadze Senior Student UUWV_CTR *, MSK_APP(UUEE+UUWW+UUDD)
Ivan Skatov Instructor UUWV_CTR, UWWW_CTR
Karim Garifullin Senior Student UUWV_CTR *, MSK_APP(UUEE+UUWW+UUDD)
Maxim Tsygankov Instructor UUWV_CTR, UWWW_CTR
Robert Farber Senior Student UUWV_CTR *, MSK_APP(UUWW+UUEE+UUDD)
Sergei Stetsko Controller UWWW_CTR
Sergey Kovalenko Controller UUWV_CTR
Yulia Goryacheva Instructor UUWV_CTR, UWWW_CTR
Yury Koryagin Instructor UUWV_CTR, UWWW_CTR
Aleksandr Lysenko Student UUWW_TWR*, UUWW_GND
Anastasia Lokotaeva Student UUEE_N_GND, UUEE_S_GND
Anton Beshenov Student UUEE_S_GND, UUEE_N_GND
Artem Smychkov Controller UUWW_F_APP, UUEE_F_APP, UUDD_APP, UUWW_APP, UUEE_APP, UUDD_DEP, UUWW_DEP, UUEE_DEP, UUDD_F_APP
Arteom Alexeev Student UUDD_GND
Arthur Kurbangaleev Student UWWW_GND
Bogdan Mavrodiev Student UUDD_GND
Danil Basharov Student 2 UUDD_APP*, UUDD_DEP*, UUDD_TWR, UUDD_F_APP*
Denis Rybalkin Student UWWW_GND
Egor Smirnov Student UUWW_GND, UUWW_TWR*
Evgeniy Dedyaev Senior Student MSK_APP(UUWW+UUDD+UUEE)
Ilya Shayakhmetov Student UUEE_N_GND, UUEE_S_GND
Ivan Buev Student 2 UUEE_S_TWR, MSK_APP(UUEE+UUWW+UUDD), UUEE_N_TWR
Kirill Ryabov Student 2 UUEE_APP*, UUEE_DEP*, UUEE_F_APP*
Kirill Shabunin Senior Controller UWKD_APP(UWKD+UWKB+UWKE+UWKJ+UWKS)
Kseniia Dedukh Senior Student UUDD_DEP, UUDD_F_APP, UUDD_APP
Masha Stanchenko Student UUWW_TWR*, UUWW_GND
Maxim Fetko Student UUEE_N_GND, UUEE_S_GND
Maxim Kalalenskiy Student UUWW_GND
Mikhail Kirillov Student UUEE_S_GND, UUEE_N_GND
Nick Smirnov Student UUEE_N_GND, UUWW_GND, UUEE_N_TWR*, UUEE_S_GND, UUEE_S_TWR*
Nikita Levin Student 2 UUWW_APP*, UUWW_DEP*, UUWW_TWR, UUWW_F_APP*
Oleg Konstantinov Student 2 UUEE_N_TWR, UUEE_APP*, UUEE_S_TWR, UUEE_DEP*, UUEE_F_APP*
Pavel Yashin Student 2 UWKD_GND
Rodion Shumakher Student UUDD_GND
Sergey Isaev Student 2 UUEE_S_GND, UUEE_N_TWR*, UUEE_N_GND, UUEE_S_TWR*
Sergey Soshnikov Student UWWW_GND
Stanley Yorke Controller UUWW_APP, UUWW_DEP, UUWW_F_APP
Vladimir Kon Student UUDD_GND
Vsevolod Skryabin Student 2 UWOO_GND!!!
Vyacheslav Neklyudov Student 2 UUWW_APP*, UUEE_S_TWR, UUWW_DEP*, UUWW_F_APP*, UUEE_N_TWR
Yury Kompaniychenko Student 2 UUML_TWR!!!

Аэропорты региона

ICAO Город Название Погода
UUWW Москва Внуково UUWW 161930Z 22006MPS CAVOK M06/M09 Q1003 R24/420350 NOSIG
UUDD Москва Домодедово UUDD 161930Z 24006MPS CAVOK M06/M09 Q1003 R88/520240 NOSIG
UUBW Москва Жуковский UUBW 161930Z 25002MPS CAVOK M06/M09 Q1004 R30/410145 NOSIG
UUMU Москва Чкаловский
UUEE Москва Шереметьево UUEE 161930Z 22006MPS CAVOK M06/M09 Q1001 R88/550336 NOSIG
UWWW Самара Курумоч UWWW 161930Z 30004MPS 9999 SCT033 M06/M10 Q1002 R33/410156 NOSIG RMK QFE741/0988
UWUU Уфа Уфа UWUU 161930Z 23006MPS 4500 -SN OVC020 M11/M13 Q0997 R14R/450542 TEMPO 1000 SN BKN007
UUOB Белгород Белгород UUOB 161930Z 26003MPS 9999 BKN040 M02/M06 Q1014 R29/850345 NOSIG
UUBP Брянск Брянск UUBP 161930Z AUTO 21003MPS 9999 NCD M08/M10 Q1009 RMK QFE739/0985
UWKB Бугульма Бугульма
UUOO Воронеж Воронеж UUOO 161930Z 25003MPS CAVOK M05/M07 Q1011 R30/250145 NOSIG RMK QFE745
UUBI Иваново Иваново
UWKJ Йошкар-Ола Йошкар-Ола
UWKD Казань Казань UWKD 161930Z 27005MPS 9999 BKN045 M07/M10 Q1000 R29/390045 NOSIG RMK QFE739/0986
UUBC Калуга Калуга UUBC 161930Z 24004MPS CAVOK M05/M08 Q1006 R13/820145 NOSIG RMK QFE736/0982
UUOK Курск Курск UUOK 161930Z 24002MPS CAVOK M06/M10 Q1012 R30/410155 NOSIG RMK QFE740/0987
UUMO Москва Остафьево UUMO 161930Z 22003MPS CAVOK M06/M09 Q1004 R25/450242 NOSIG RMK QFE737/0983
UWKE Нижнекамск Бегишево UWKE 161930Z 27006MPS 9000 -SN DRSN OVC046 M08/M09 Q0997 R21/420538 NOSIG RMK QFE731/0975
UWGG Нижний Новгород Стригино UWGG 161930Z 20004MPS 9999 OVC026 M06/M09 Q1002 R18L/490140 NOSIG
UWOO Оренбург Оренбург UWOO 161930Z 24003MPS 9000 -SN OVC036 M07/M09 Q1003 R26/850336 NOSIG RMK QFE742/0989
UWOR Орск Орск UWOR 161900Z 24011MPS 9000 BLSN NSC M07/M10 Q1001 R25/850240 NOSIG RMK QFE728/0970
UWPP Пенза Пенза
UWPS Саранск Саранск UWPS 161930Z 25005MPS 9999 SCT033 M09/M11 Q1005 R20/492038 NOSIG RMK QFE735
UWSG Саратов Гагарин UWSG 161930Z 29005MPS CAVOK M07/M09 Q1008 R26/820265 NOSIG RMK QFE753/1005
UWSS Саратов Саратов
UWLL Ульяновск-УЛК Ульяновск UWLL 161930Z 27005MPS 9999 BKN041CB M06/M09 Q1003 R20/850242 NOSIG RMK QFE742/0990
UWLW Ульяновск-УЛС Восточный UWLW 161900Z 28005MPS 9999 -SN OVC045 M06/M09 Q1002 R02/490740 NOSIG RMK QFE745
UWKS Чебоксары Чебоксары UWKS 161930Z 30005MPS 9999 BKN020 M06/M09 Q1000 R24/490337 NOSIG RMK QFE736
UUMW Ватулино Ватулино
UUML Воскресенск Северка
UUDL Ярославль Туношна UUDL 161930Z 23005MPS CAVOK M05/M08 Q0997 R23/890539 NOSIG RMK QFE740